Time;durP1;ratioP1;P1;durP2;ratioP2;P2;SDS_P1;SDS_P2;PMS_P1;PMS_P2;Temp;Humidity;BMP_temperature;BMP_pressure;BME280_temperature;BME280_humidity;BME280_pressure;Samples;Min_cycle;Max_cycle;Signal;HPM_P1;HPM_P2
2021/10/08 00:03:17;;;;;;;7.53;6.22;;;;;;;12.34;82.03;101348.50;10402394;28;20037;-73
2021/10/08 00:08:18;;;;;;;8.15;7.30;;;;;;;12.64;80.42;101338.28;10418646;28;20107;-73
2021/10/08 00:13:20;;;;;;;8.90;8.13;;;;;;;12.56;81.48;101353.38;10402037;28;20438;-73
2021/10/08 00:18:22;;;;;;;8.35;7.68;;;;;;;12.59;81.41;101351.56;10418523;28;20050;-73
2021/10/08 00:23:23;;;;;;;10.18;9.27;;;;;;;12.60;81.73;101355.06;10400165;28;20050;-74
2021/10/08 00:28:25;;;;;;;10.45;9.65;;;;;;;12.58;82.45;101343.69;10400405;28;20075;-74
2021/10/08 00:33:27;;;;;;;9.85;9.05;;;;;;;12.55;82.98;101349.88;10400498;28;20399;-73
2021/10/08 00:38:28;;;;;;;12.68;11.65;;;;;;;12.43;84.11;101344.84;10383225;28;20138;-74
2021/10/08 00:43:30;;;;;;;11.70;10.90;;;;;;;12.58;83.41;101341.94;10400295;28;20045;-74
2021/10/08 00:48:32;;;;;;;12.10;10.88;;;;;;;12.56;83.58;101351.63;10400526;28;20053;-73
2021/10/08 00:53:33;;;;;;;11.90;10.95;;;;;;;12.50;84.09;101349.09;10399695;28;20415;-75
2021/10/08 00:58:36;;;;;;;14.02;11.68;;;;;;;12.43;84.76;101342.19;10383109;28;20049;-75
2021/10/08 01:03:38;;;;;;;13.23;12.23;;;;;;;12.41;85.43;101336.09;10417313;28;20048;-74
2021/10/08 01:08:39;;;;;;;14.18;13.15;;;;;;;12.38;85.78;101330.88;10417013;28;20538;-75
2021/10/08 01:13:41;;;;;;;15.60;14.20;;;;;;;12.41;86.13;101335.22;10398995;28;20057;-74
2021/10/08 01:18:46;;;;;;;17.23;16.00;;;;;;;12.58;85.22;101334.00;10398435;28;20046;-74
2021/10/08 01:23:48;;;;;;;16.98;15.68;;;;;;;12.49;85.22;101333.31;10416677;28;20045;-74
2021/10/08 01:28:51;;;;;;;17.30;15.98;;;;;;;12.48;85.84;101334.19;10399384;28;20080;-74
2021/10/08 01:33:56;;;;;;;17.50;16.30;;;;;;;12.53;85.93;101342.91;10399182;28;20116;-73
2021/10/08 01:39:02;;;;;;;21.75;18.63;;;;;;;12.37;86.82;101340.56;10383142;28;20056;-75
2021/10/08 01:44:08;;;;;;;17.17;15.77;;;;;;;12.33;86.45;101338.88;10398663;28;20046;-75
2021/10/08 01:49:10;;;;;;;19.48;17.85;;;;;;;12.32;87.29;101344.19;10416754;28;20065;-74
2021/10/08 01:54:12;;;;;;;21.40;19.40;;;;;;;12.37;86.69;101339.69;10414380;22;20041;-71
2021/10/08 01:59:15;;;;;;;19.05;17.52;;;;;;;12.35;86.90;101352.00;10382355;28;20053;-70
2021/10/08 02:04:18;;;;;;;21.88;20.00;;;;;;;12.52;86.81;101343.78;10399032;28;20042;-71
2021/10/08 02:09:20;;;;;;;22.08;20.55;;;;;;;12.66;85.51;101348.81;10399082;28;20050;-71
2021/10/08 02:14:22;;;;;;;21.35;19.77;;;;;;;12.43;86.91;101344.84;10400492;28;20045;-70
2021/10/08 02:19:26;;;;;;;26.08;24.23;;;;;;;12.58;85.29;101351.59;10407406;28;20053;-70
2021/10/08 02:24:33;;;;;;;32.25;28.92;;;;;;;12.69;84.36;101352.25;10423425;28;20038;-70
2021/10/08 02:29:35;;;;;;;33.67;30.27;;;;;;;12.58;84.14;101362.16;10407314;28;20410;-71
2021/10/08 02:34:40;;;;;;;38.25;33.60;;;;;;;12.47;84.44;101348.28;10404837;28;20042;-68
2021/10/08 02:39:42;;;;;;;39.30;32.10;;;;;;;12.72;82.61;101361.91;10405925;28;20041;-68
2021/10/08 02:44:43;;;;;;;37.22;33.53;;;;;;;12.64;82.74;101362.03;10403734;28;20041;-68
2021/10/08 02:49:45;;;;;;;38.58;34.50;;;;;;;12.59;83.35;101362.13;10422252;28;20049;-68
2021/10/08 02:54:48;;;;;;;39.00;33.55;;;;;;;12.59;82.91;101364.75;10403923;28;20418;-68
2021/10/08 02:59:50;;;;;;;43.53;34.72;;;;;;;12.67;83.16;101374.31;10404948;28;20080;-68
2021/10/08 03:04:52;;;;;;;43.03;36.45;;;;;;;12.49;83.61;101375.53;10421195;28;20030;-68
2021/10/08 03:09:54;;;;;;;40.00;35.03;;;;;;;12.62;83.65;101370.00;10403993;28;20056;-68
2021/10/08 03:14:57;;;;;;;44.05;35.33;;;;;;;12.38;84.52;101376.56;10403133;28;20052;-68
2021/10/08 03:20:00;;;;;;;42.75;37.35;;;;;;;12.60;83.16;101378.81;10404108;28;20111;-68
2021/10/08 03:25:06;;;;;;;43.30;36.38;;;;;;;12.55;83.74;101380.69;10402763;28;20068;-68
2021/10/08 03:30:12;;;;;;;49.45;37.05;;;;;;;12.27;85.06;101380.31;10420112;28;20398;-68
2021/10/08 03:35:15;;;;;;;38.33;26.00;;;;;;;12.58;83.09;101380.63;10402655;28;20415;-68
2021/10/08 03:40:26;;;;;;;50.58;36.75;;;;;;;12.51;83.43;101379.84;10402921;28;20419;-68
2021/10/08 03:45:32;;;;;;;39.10;34.47;;;;;;;12.47;83.90;101370.25;10404157;28;20052;-68
2021/10/08 03:50:34;;;;;;;42.13;34.63;;;;;;;12.58;82.57;101370.06;10421036;28;20099;-68
2021/10/08 03:55:35;;;;;;;38.20;33.97;;;;;;;12.57;82.76;101377.13;10419484;28;20498;-68
2021/10/08 04:00:37;;;;;;;44.85;34.28;;;;;;;12.53;83.68;101375.44;10400944;28;20076;-68
2021/10/08 04:05:46;;;;;;;36.40;32.72;;;;;;;12.37;84.89;101372.19;10388310;28;20052;-68
2021/10/08 04:10:49;;;;;;;40.08;34.55;;;;;;;12.40;84.38;101379.19;10384866;28;20137;-67
2021/10/08 04:15:51;;;;;;;38.90;34.92;;;;;;;12.46;84.75;101381.72;10400688;28;20057;-68
2021/10/08 04:20:54;;;;;;;45.60;36.10;;;;;;;12.39;84.71;101387.97;10384773;28;20041;-67
2021/10/08 04:25:56;;;;;;;43.10;36.03;;;;;;;12.46;84.32;101384.34;10403173;28;20050;-68
2021/10/08 04:30:58;;;;;;;47.88;36.67;;;;;;;12.44;84.10;101382.63;10399972;28;20072;-68
2021/10/08 04:36:01;;;;;;;50.20;35.10;;;;;;;12.42;84.53;101387.94;10400523;28;20045;-68
2021/10/08 04:41:08;;;;;;;49.10;36.50;;;;;;;12.48;84.37;101398.34;10399495;28;20049;-68
2021/10/08 04:46:12;;;;;;;55.55;41.03;;;;;;;12.47;83.94;101394.00;10401453;28;20056;-68
2021/10/08 04:51:14;;;;;;;47.90;36.95;;;;;;;12.39;84.30;101406.44;10402162;28;20136;-68
2021/10/08 04:56:16;;;;;;;50.85;36.03;;;;;;;12.47;84.29;101408.94;10399219;28;20103;-68
2021/10/08 05:01:18;;;;;;;52.88;38.55;;;;;;;12.37;85.03;101410.88;10399275;28;20041;-68
2021/10/08 05:06:20;;;;;;;53.83;37.03;;;;;;;12.24;85.62;101410.22;10399411;28;20053;-68
2021/10/08 05:11:27;;;;;;;59.00;38.67;;;;;;;12.47;84.63;101423.00;10400548;28;20446;-68
2021/10/08 05:16:30;;;;;;;55.38;39.42;;;;;;;12.43;84.72;101425.72;10400083;28;20045;-68
2021/10/08 05:21:33;;;;;;;49.05;35.95;;;;;;;12.59;84.24;101428.06;10383182;28;20136;-68
2021/10/08 05:26:35;;;;;;;44.95;34.80;;;;;;;12.50;83.24;101435.28;10402237;28;20539;-68
2021/10/08 05:31:41;;;;;;;52.80;35.25;;;;;;;12.43;82.80;101429.22;10401796;28;20041;-68
2021/10/08 05:36:45;;;;;;;50.50;35.38;;;;;;;12.28;83.09;101440.91;10384053;28;20057;-68
2021/10/08 05:41:48;;;;;;;57.88;37.35;;;;;;;12.31;83.27;101448.78;10398404;28;20499;-67
2021/10/08 05:46:51;;;;;;;53.55;37.70;;;;;;;12.30;83.16;101452.28;10397863;28;20064;-68
2021/10/08 05:51:52;;;;;;;58.92;39.28;;;;;;;12.05;84.63;101454.47;10402313;28;20494;-68
2021/10/08 05:56:54;;;;;;;66.03;40.92;;;;;;;12.20;83.69;101455.97;10406461;28;20103;-68
2021/10/08 06:01:56;;;;;;;67.43;42.65;;;;;;;12.08;84.00;101458.78;10407512;28;20133;-68
2021/10/08 06:06:58;;;;;;;70.15;41.67;;;;;;;12.11;83.52;101462.25;10389494;28;20045;-68
2021/10/08 06:12:02;;;;;;;60.95;40.65;;;;;;;12.15;83.10;101459.59;10406961;28;20047;-68
2021/10/08 06:17:08;;;;;;;76.15;42.55;;;;;;;12.14;82.77;101463.13;10408645;28;20048;-68
2021/10/08 06:22:11;;;;;;;67.70;42.30;;;;;;;12.17;83.03;101470.97;10405738;28;20038;-68
2021/10/08 06:27:13;;;;;;;53.30;36.38;;;;;;;12.23;80.60;101476.16;10380495;28;20092;-68
2021/10/08 06:32:15;;;;;;;53.15;35.38;;;;;;;12.18;78.80;101484.13;10384217;28;20044;-69
2021/10/08 06:37:17;;;;;;;58.58;37.22;;;;;;;12.21;78.64;101480.56;10396160;28;20432;-68
2021/10/08 06:42:24;;;;;;;56.65;37.25;;;;;;;12.20;78.96;101482.34;10389294;28;20037;-69
2021/10/08 06:47:30;;;;;;;56.60;36.65;;;;;;;12.08;79.52;101487.78;10404966;28;20049;-67
2021/10/08 06:52:32;;;;;;;56.85;37.95;;;;;;;12.17;79.92;101486.78;10405497;28;20112;-68
2021/10/08 06:57:34;;;;;;;53.05;36.95;;;;;;;12.36;78.84;101486.47;10406439;28;20049;-68
2021/10/08 07:02:48;;;;;;;55.25;35.05;;;;;;;12.39;77.89;101493.47;10404748;28;20038;-68
2021/10/08 07:07:51;;;;;;;41.80;33.22;;;;;;;12.41;78.08;101490.81;10404287;28;20515;-68
2021/10/08 07:12:55;;;;;;;45.13;34.28;;;;;;;12.49;76.70;101487.16;10404172;28;20038;-69
2021/10/08 07:17:56;;;;;;;46.38;32.67;;;;;;;12.46;76.11;101484.56;10422018;28;20049;-67
2021/10/08 07:23:01;;;;;;;45.35;33.92;;;;;;;12.46;76.14;101483.69;10424000;28;20069;-69
2021/10/08 07:28:03;;;;;;;47.42;34.42;;;;;;;12.66;75.60;101483.34;10423108;28;20045;-69
2021/10/08 07:33:05;;;;;;;47.35;31.67;;;;;;;12.84;73.49;101483.91;10422782;28;20380;-69
2021/10/08 07:38:07;;;;;;;45.92;34.33;;;;;;;12.91;73.40;101478.50;10420591;28;20050;-69
2021/10/08 07:43:08;;;;;;;41.58;32.33;;;;;;;12.74;74.38;101481.44;10422468;28;20376;-68
2021/10/08 07:48:10;;;;;;;44.75;34.47;;;;;;;12.85;73.34;101493.56;10402821;28;20139;-67
2021/10/08 07:53:12;;;;;;;41.83;34.25;;;;;;;12.81;74.28;101483.09;10384266;28;20468;-68
2021/10/08 07:58:14;;;;;;;49.08;34.40;;;;;;;13.00;73.85;101489.75;10393023;28;20077;-68
2021/10/08 08:03:16;;;;;;;46.25;34.88;;;;;;;13.03;73.00;101489.72;10433026;22;20049;-73
2021/10/08 08:08:17;;;;;;;37.92;33.38;;;;;;;13.10;72.71;101503.66;10401393;28;20053;-74
2021/10/08 08:13:19;;;;;;;42.33;30.35;;;;;;;13.43;70.81;101491.63;10400101;28;20540;-74
2021/10/08 08:18:21;;;;;;;34.95;29.35;;;;;;;13.46;69.26;101493.31;10407639;28;20088;-73
2021/10/08 08:23:23;;;;;;;39.63;27.20;;;;;;;13.36;69.46;101497.91;10396299;28;20444;-73
2021/10/08 08:28:26;;;;;;;42.20;27.00;;;;;;;13.60;67.60;101496.56;10401663;28;20050;-75
2021/10/08 08:33:31;;;;;;;30.42;24.60;;;;;;;13.59;66.49;101500.97;10401384;28;20045;-73
2021/10/08 08:38:33;;;;;;;32.85;25.33;;;;;;;13.64;65.96;101500.88;10417903;28;20069;-75
2021/10/08 08:43:34;;;;;;;35.17;23.98;;;;;;;13.62;64.88;101487.69;10376745;28;20162;-73
2021/10/08 08:48:36;;;;;;;27.13;20.65;;;;;;;13.89;64.10;101486.19;10360871;28;20484;-74
2021/10/08 08:53:38;;;;;;;28.30;17.63;;;;;;;14.16;61.18;101489.13;10377274;28;20046;-75
2021/10/08 08:58:39;;;;;;;22.10;14.40;;;;;;;14.01;60.18;101492.13;10377487;28;20064;-73
2021/10/08 09:03:59;;;;;;;18.10;13.40;;;;;;;14.22;58.13;101481.06;10377159;28;20042;-72
2021/10/08 09:09:13;;;;;;;31.02;11.95;;;;;;;14.22;54.90;101481.06;10377096;28;20052;-72
2021/10/08 09:14:22;;;;;;;26.02;12.98;;;;;;;14.29;55.14;101482.63;10377770;28;20045;-73
2021/10/08 09:19:42;;;;;;;24.20;12.85;;;;;;;14.41;56.20;101476.19;10360293;28;20137;-74
2021/10/08 09:24:44;;;;;;;31.10;11.55;;;;;;;14.71;53.47;101477.22;10378173;28;20042;-73
2021/10/08 09:29:54;;;;;;;25.02;11.52;;;;;;;14.67;52.88;101477.34;10389839;28;20526;-73
2021/10/08 09:35:07;;;;;;;26.05;12.45;;;;;;;14.74;53.72;101469.22;10373268;28;20527;-74
2021/10/08 09:40:44;;;;;;;22.17;11.90;;;;;;;14.84;53.35;101473.34;10372871;28;20495;-75
2021/10/08 09:45:50;;;;;;;16.63;12.43;;;;;;;15.14;53.42;101476.94;10185749;29;20131;-73
2021/10/08 09:51:05;;;;;;;21.58;12.40;;;;;;;15.13;52.56;101475.19;10185653;29;20048;-73
2021/10/08 09:56:28;;;;;;;24.63;12.75;;;;;;;15.29;51.66;101467.69;10186133;29;20064;-72
2021/10/08 10:01:33;;;;;;;20.33;11.57;;;;;;;15.69;50.17;101471.00;10169472;29;20058;-73
2021/10/08 10:06:37;;;;;;;19.30;12.27;;;;;;;15.72;50.11;101470.91;10185906;29;20502;-73
2021/10/08 10:11:39;;;;;;;23.92;12.25;;;;;;;15.98;49.83;101464.78;10185048;29;20064;-73
2021/10/08 10:16:41;;;;;;;23.95;11.45;;;;;;;16.24;48.89;101459.50;10169667;29;20579;-73
2021/10/08 10:21:43;;;;;;;15.80;11.27;;;;;;;15.95;47.05;101467.56;10357224;28;20058;-71
2021/10/08 10:26:45;;;;;;;24.10;10.73;;;;;;;16.13;46.72;101464.31;10391387;28;20095;-73
2021/10/08 10:31:47;;;;;;;16.77;10.00;;;;;;;16.48;46.44;101463.16;10390123;28;20046;-73
2021/10/08 10:36:49;;;;;;;25.35;10.50;;;;;;;16.45;45.93;101457.09;10370515;28;20053;-72
2021/10/08 10:42:14;;;;;;;17.20;9.95;;;;;;;16.57;45.89;101457.53;10381830;28;20053;-72
2021/10/08 10:47:32;;;;;;;17.85;9.10;;;;;;;17.26;45.59;101456.91;10382956;28;20057;-73
2021/10/08 10:52:46;;;;;;;20.20;9.02;;;;;;;17.05;44.03;101455.91;10364379;28;20081;-73
2021/10/08 10:57:49;;;;;;;15.55;8.40;;;;;;;17.45;40.90;101457.97;10382627;28;20125;-72
2021/10/08 11:03:07;;;;;;;11.98;6.57;;;;;;;17.07;40.65;101460.25;10381972;28;20045;-73
2021/10/08 11:08:12;;;;;;;14.10;7.40;;;;;;;17.61;40.69;101442.28;10365663;28;20108;-75
2021/10/08 11:13:28;;;;;;;15.15;6.90;;;;;;;17.49;42.98;101451.63;10381652;28;20053;-72
2021/10/08 11:18:33;;;;;;;10.55;6.85;;;;;;;17.61;40.80;101443.16;10365246;28;20046;-73
2021/10/08 11:23:37;;;;;;;17.02;7.30;;;;;;;17.82;40.85;101446.81;10363684;28;20046;-73
2021/10/08 11:28:45;;;;;;;13.63;6.57;;;;;;;17.45;39.52;101436.72;10381615;28;20049;-73
2021/10/08 11:33:53;;;;;;;17.08;7.07;;;;;;;17.42;40.45;101441.25;10381657;28;20048;-73
2021/10/08 11:39:14;;;;;;;17.35;7.78;;;;;;;17.68;40.78;101429.63;10363477;28;20084;-73
2021/10/08 11:49:39;;;;;;;10.43;7.35;;;;;;;17.43;40.16;101416.41;10381359;28;20037;-74
2021/10/08 11:54:40;;;;;;;15.30;7.78;;;;;;;17.16;41.77;101419.19;10381125;28;20048;-72
2021/10/08 11:59:59;;;;;;;11.55;7.35;;;;;;;17.19;41.26;101411.09;10380439;28;20499;-73
2021/10/08 12:05:02;;;;;;;13.40;6.80;;;;;;;16.87;40.62;101413.16;10379738;28;20399;-71
2021/10/08 12:10:10;;;;;;;17.45;6.70;;;;;;;16.50;40.35;101410.00;10379929;28;20038;-73
2021/10/08 12:15:39;;;;;;;15.55;7.53;;;;;;;16.23;41.25;101412.69;10380517;28;20038;-72
2021/10/08 12:20:44;;;;;;;8.80;6.47;;;;;;;16.01;40.70;101409.88;10362857;28;20116;-73
2021/10/08 12:25:49;;;;;;;13.77;6.90;;;;;;;15.88;40.80;101408.53;10361802;28;20141;-72
2021/10/08 12:30:59;;;;;;;14.45;6.00;;;;;;;15.86;41.08;101405.06;10377645;28;20411;-72
2021/10/08 12:36:28;;;;;;;10.98;6.53;;;;;;;15.71;41.37;101405.53;10377026;28;20049;-71
2021/10/08 12:41:42;;;;;;;13.43;6.05;;;;;;;15.91;42.55;101400.47;10377411;28;20045;-71
2021/10/08 12:46:57;;;;;;;13.88;6.18;;;;;;;15.82;41.46;101409.59;10360207;28;20050;-72
2021/10/08 12:51:59;;;;;;;10.20;6.00;;;;;;;15.77;42.17;101400.06;10378520;28;20492;-70
2021/10/08 12:57:15;;;;;;;11.75;6.30;;;;;;;15.70;42.50;101404.66;10359671;28;20045;-72
2021/10/08 13:02:19;;;;;;;20.10;5.50;;;;;;;15.75;41.72;101404.53;10358613;28;20434;-71
2021/10/08 13:07:21;;;;;;;11.48;5.55;;;;;;;15.79;41.74;101404.38;10378195;28;20049;-72
2021/10/08 13:12:23;;;;;;;7.80;4.47;;;;;;;15.60;41.95;101401.41;10376846;28;20050;-71
2021/10/08 13:17:27;;;;;;;8.95;4.38;;;;;;;15.73;40.87;101396.63;10376434;28;20046;-72
2021/10/08 13:22:28;;;;;;;7.88;4.13;;;;;;;15.62;41.23;101402.22;10376866;28;20407;-72
2021/10/08 13:27:33;;;;;;;6.72;3.75;;;;;;;15.69;40.44;101392.34;10376287;28;20111;-73
2021/10/08 13:32:34;;;;;;;11.32;3.85;;;;;;;15.59;41.10;101396.16;10376698;28;20046;-74
2021/10/08 13:37:36;;;;;;;10.32;4.65;;;;;;;15.59;42.09;101391.72;10376645;28;20058;-74
2021/10/08 13:42:41;;;;;;;5.53;3.65;;;;;;;15.57;38.67;101385.59;10376160;28;20045;-72
2021/10/08 13:47:43;;;;;;;5.47;3.33;;;;;;;15.60;38.86;101382.84;10375985;28;20049;-72
2021/10/08 13:52:44;;;;;;;4.25;2.95;;;;;;;15.57;40.04;101382.94;10377201;28;20042;-72
2021/10/08 13:57:46;;;;;;;4.70;2.80;;;;;;;15.57;40.42;101382.09;10377312;28;20434;-72
2021/10/08 14:03:01;;;;;;;4.75;3.03;;;;;;;15.60;40.04;101379.34;10375582;28;20132;-75
2021/10/08 14:08:42;;;;;;;7.72;3.05;;;;;;;15.53;39.06;101391.03;10376225;28;20454;-75
2021/10/08 14:13:32;;;;;;;10.75;3.25;;;;;;;15.53;39.65;101383.94;10377086;28;20372;-74
2021/10/08 14:18:33;;;;;;;9.90;3.22;;;;;;;15.59;40.16;101382.91;10383631;28;20050;-73
2021/10/08 14:23:36;;;;;;;6.78;2.97;;;;;;;15.50;39.46;101383.19;10383425;28;20042;-75
2021/10/08 14:28:37;;;;;;;5.63;3.38;;;;;;;15.36;39.26;101384.50;10383039;28;20045;-74
2021/10/08 14:33:39;;;;;;;6.28;3.08;;;;;;;15.26;40.51;101390.09;10382208;28;20049;-74
2021/10/08 14:38:41;;;;;;;4.25;2.70;;;;;;;15.34;40.33;101393.38;10382127;28;20050;-74
2021/10/08 14:43:42;;;;;;;5.70;3.30;;;;;;;15.11;40.92;101392.28;10382025;28;20116;-75
2021/10/08 14:48:44;;;;;;;4.80;3.00;;;;;;;15.18;41.41;101389.44;10381557;28;20045;-74
2021/10/08 14:53:46;;;;;;;6.20;3.65;;;;;;;15.10;41.43;101394.97;10381807;28;20054;-75
2021/10/08 14:58:48;;;;;;;4.57;3.88;;;;;;;15.06;41.38;101394.19;10381353;28;20100;-76
2021/10/08 15:03:50;;;;;;;5.93;3.63;;;;;;;14.97;42.13;101390.94;10380916;28;20084;-74
2021/10/08 15:08:52;;;;;;;5.63;3.65;;;;;;;15.03;42.01;101386.34;10380693;28;20045;-74
2021/10/08 15:13:54;;;;;;;7.60;3.70;;;;;;;14.88;42.92;101386.78;10381233;28;20046;-74
2021/10/08 15:18:55;;;;;;;9.27;3.90;;;;;;;14.91;42.61;101381.38;10380227;28;20054;-73
2021/10/08 15:23:57;;;;;;;5.82;4.00;;;;;;;14.83;43.00;101383.38;10378526;28;20037;-74
2021/10/08 15:28:59;;;;;;;5.35;3.72;;;;;;;14.79;43.34;101392.34;10379355;28;20085;-74
2021/10/08 15:34:01;;;;;;;6.95;6.18;;;;;;;14.70;43.49;101388.16;10379938;28;20042;-74
2021/10/08 15:39:04;;;;;;;5.82;3.63;;;;;;;14.59;43.34;101383.13;10361213;28;20057;-74
2021/10/08 15:44:06;;;;;;;6.45;4.05;;;;;;;14.51;43.60;101397.47;10379594;28;20050;-74
2021/10/08 15:49:07;;;;;;;9.38;4.50;;;;;;;14.43;44.44;101408.22;10379011;28;20411;-74
2021/10/08 15:54:09;;;;;;;6.97;5.45;;;;;;;14.22;45.74;101419.38;10378741;28;20419;-75
2021/10/08 15:59:10;;;;;;;16.23;4.72;;;;;;;14.14;45.51;101414.25;10378942;28;20046;-74
2021/10/08 16:04:12;;;;;;;8.38;4.57;;;;;;;13.80;46.60;101430.03;10378442;28;20042;-73
2021/10/08 16:09:14;;;;;;;5.43;4.40;;;;;;;13.78;46.65;101427.44;10378988;28;20092;-75
2021/10/08 16:14:16;;;;;;;5.38;4.65;;;;;;;13.77;46.03;101438.06;10360569;28;20038;-74
2021/10/08 16:19:20;;;;;;;6.47;4.55;;;;;;;13.41;47.40;101445.84;10378086;28;20092;-74
2021/10/08 16:24:21;;;;;;;9.48;5.57;;;;;;;13.29;48.08;101451.41;10377172;28;20042;-75
2021/10/08 16:29:23;;;;;;;7.75;5.07;;;;;;;13.22;48.26;101457.69;10377858;28;20402;-74
2021/10/08 16:34:25;;;;;;;10.70;5.85;;;;;;;13.15;48.64;101459.59;10377022;28;20050;-74
2021/10/08 16:39:30;;;;;;;9.07;5.28;;;;;;;13.05;48.92;101461.50;10376990;28;20551;-75
2021/10/08 16:44:31;;;;;;;8.77;6.25;;;;;;;12.93;49.21;101482.88;10358875;28;20447;-74
2021/10/08 16:49:42;;;;;;;9.75;6.18;;;;;;;12.74;50.21;101477.03;10377547;28;20507;-74
2021/10/08 16:54:44;;;;;;;11.07;6.07;;;;;;;12.63;50.13;101489.56;10376394;28;20522;-74
2021/10/08 16:59:49;;;;;;;8.32;5.88;;;;;;;12.44;50.85;101483.72;10377253;28;20053;-76
2021/10/08 17:04:50;;;;;;;7.32;6.10;;;;;;;12.27;51.33;101493.66;10381512;28;20045;-74
2021/10/08 17:09:52;;;;;;;13.35;5.60;;;;;;;12.14;51.96;101500.91;10405163;28;20450;-74
2021/10/08 17:14:54;;;;;;;8.20;7.00;;;;;;;12.10;52.56;101500.06;10364797;28;20515;-74
2021/10/08 17:19:56;;;;;;;10.05;6.45;;;;;;;12.01;53.09;101502.84;10382571;28;20060;-75
2021/10/08 17:25:03;;;;;;;9.63;7.35;;;;;;;11.90;53.10;101506.50;10398867;28;20041;-75
2021/10/08 17:30:33;;;;;;;13.48;7.15;;;;;;;11.73;54.32;101514.59;10417692;28;20041;-74
2021/10/08 17:35:35;;;;;;;11.73;6.95;;;;;;;11.68;54.65;101519.91;10416606;28;20048;-75
2021/10/08 17:40:36;;;;;;;7.93;7.13;;;;;;;11.51;54.88;101525.41;10362984;28;20061;-74
2021/10/08 17:45:38;;;;;;;8.70;7.32;;;;;;;11.35;55.92;101527.34;10376326;28;20195;-74
2021/10/08 17:50:42;;;;;;;9.13;7.35;;;;;;;11.14;56.81;101530.19;10383173;28;20056;-76
2021/10/08 17:55:44;;;;;;;9.55;7.68;;;;;;;10.96;57.85;101525.13;10383296;28;20053;-74
2021/10/08 18:00:55;;;;;;;12.50;8.38;;;;;;;11.19;57.71;101527.50;10383434;28;20100;-74
2021/10/08 18:05:57;;;;;;;16.80;9.27;;;;;;;11.15;57.90;101533.69;10383888;28;20046;-76
2021/10/08 18:11:00;;;;;;;15.30;9.75;;;;;;;11.11;58.98;101533.75;10388259;28;20069;-74
2021/10/08 18:16:01;;;;;;;11.35;9.80;;;;;;;10.99;59.86;101536.50;10424220;28;20045;-75
2021/10/08 18:21:04;;;;;;;12.07;10.18;;;;;;;10.98;59.95;101531.22;10406296;28;20546;-74
2021/10/08 18:26:07;;;;;;;19.00;11.10;;;;;;;10.91;60.69;101535.69;10405915;28;20057;-75
2021/10/08 18:31:09;;;;;;;13.82;10.70;;;;;;;10.77;61.36;101538.44;10404882;28;20492;-74
2021/10/08 18:36:10;;;;;;;14.55;10.65;;;;;;;10.56;62.15;101550.00;10395913;28;20117;-75
2021/10/08 18:41:14;;;;;;;20.77;12.90;;;;;;;10.73;62.10;101538.47;10364606;28;20054;-76
2021/10/08 18:46:15;;;;;;;17.35;12.55;;;;;;;10.69;62.29;101547.28;10381679;28;20046;-75
2021/10/08 18:51:17;;;;;;;16.55;12.02;;;;;;;10.56;62.75;101539.47;10381279;28;20076;-76
2021/10/08 18:56:22;;;;;;;15.27;13.10;;;;;;;10.34;64.08;101546.66;10381049;28;20038;-74
2021/10/08 19:01:25;;;;;;;15.95;14.18;;;;;;;10.47;63.65;101536.91;10379395;28;20081;-75
2021/10/08 19:06:28;;;;;;;22.05;14.52;;;;;;;10.30;64.41;101537.03;10346852;28;20085;-75
2021/10/08 19:11:37;;;;;;;23.55;15.48;;;;;;;10.30;64.63;101544.06;10362835;28;20461;-75
2021/10/08 19:17:01;;;;;;;21.88;14.38;;;;;;;10.07;65.92;101545.03;10381002;28;20048;-75
2021/10/08 19:22:04;;;;;;;16.50;14.73;;;;;;;9.87;66.30;101541.63;10363077;28;20140;-75
2021/10/08 19:27:09;;;;;;;23.10;16.48;;;;;;;9.90;66.44;101554.75;10362325;28;20049;-75
2021/10/08 19:32:14;;;;;;;22.08;17.40;;;;;;;9.76;67.28;101546.06;10346116;28;20056;-74
2021/10/08 19:37:16;;;;;;;17.20;15.30;;;;;;;9.68;67.67;101545.22;10362527;28;20141;-75
2021/10/08 19:42:20;;;;;;;21.90;16.58;;;;;;;9.62;67.84;101538.25;10363473;28;20108;-74
2021/10/08 19:47:27;;;;;;;22.67;16.42;;;;;;;9.66;68.18;101540.00;10379279;28;20038;-75
2021/10/08 19:52:43;;;;;;;19.15;16.00;;;;;;;9.54;68.22;101530.41;10379880;28;20441;-75
2021/10/08 19:57:46;;;;;;;20.58;16.92;;;;;;;9.44;68.70;101527.81;10379507;28;20068;-76
2021/10/08 20:02:51;;;;;;;22.90;17.40;;;;;;;9.27;69.22;101531.34;10361383;28;20103;-74
2021/10/08 20:13:46;;;;;;;29.58;17.98;;;;;;;9.19;70.11;101524.38;10361012;28;20050;-75
2021/10/08 20:18:43;;;;;;;34.47;19.00;;;;;;;9.00;70.82;101523.56;10379271;28;20166;-74
2021/10/08 20:23:45;;;;;;;23.83;19.67;;;;;;;8.80;71.16;101521.81;10360799;28;20041;-75
2021/10/08 20:28:47;;;;;;;23.23;19.58;;;;;;;8.72;71.25;101526.22;10360383;28;20072;-75
2021/10/08 20:33:50;;;;;;;29.83;20.10;;;;;;;9.02;71.19;101525.28;10377616;28;20103;-75
2021/10/08 20:38:53;;;;;;;30.50;19.27;;;;;;;8.57;71.92;101521.81;10360168;28;20053;-74
2021/10/08 20:43:56;;;;;;;20.88;18.33;;;;;;;8.28;73.27;101519.16;10360774;28;20042;-74
2021/10/08 20:48:58;;;;;;;26.02;19.95;;;;;;;8.37;73.71;101520.03;10378675;28;20053;-75
2021/10/08 20:54:00;;;;;;;20.15;18.00;;;;;;;8.15;74.34;101516.53;10378692;28;20052;-75
2021/10/08 20:59:05;;;;;;;24.35;20.27;;;;;;;8.16;74.44;101523.50;10379946;28;20054;-75
2021/10/08 21:04:07;;;;;;;30.55;20.80;;;;;;;7.87;75.49;101526.03;10353172;28;20042;-74
2021/10/08 21:09:09;;;;;;;31.88;20.90;;;;;;;7.69;76.29;101522.47;10378090;28;20426;-72
2021/10/08 21:14:12;;;;;;;27.63;20.10;;;;;;;7.77;77.09;101525.13;10360793;28;20103;-72
2021/10/08 21:19:13;;;;;;;34.80;21.85;;;;;;;7.93;75.89;101516.47;10377978;28;20038;-74
2021/10/08 21:24:16;;;;;;;27.80;20.48;;;;;;;7.97;75.63;101523.47;10376277;28;20403;-73
2021/10/08 21:29:17;;;;;;;31.58;20.67;;;;;;;7.75;76.42;101529.50;10359944;28;20450;-72
2021/10/08 21:34:22;;;;;;;29.23;21.60;;;;;;;7.65;76.74;101528.56;10377290;28;20048;-74
2021/10/08 21:39:50;;;;;;;33.15;22.38;;;;;;;7.33;77.49;101536.28;10377170;28;20050;-71
2021/10/08 21:44:48;;;;;;;24.98;21.55;;;;;;;7.32;77.89;101532.78;10375982;28;20492;-72
2021/10/08 21:49:51;;;;;;;33.80;23.35;;;;;;;7.59;77.15;101529.41;10358647;28;20054;-73
2021/10/08 21:54:53;;;;;;;41.40;21.95;;;;;;;7.54;76.83;101525.03;10376132;28;20046;-73
2021/10/08 21:59:54;;;;;;;24.50;21.08;;;;;;;7.42;77.50;101538.06;10376662;28;20046;-73
2021/10/08 22:04:56;;;;;;;36.70;22.70;;;;;;;7.25;78.02;101536.22;10358122;28;20427;-74
2021/10/08 22:09:57;;;;;;;27.17;22.15;;;;;;;7.20;78.22;101522.25;10360078;28;20042;-74
2021/10/08 22:14:59;;;;;;;26.70;21.27;;;;;;;6.88;79.16;101526.41;10376525;28;20472;-73
2021/10/08 22:20:07;;;;;;;24.15;21.67;;;;;;;6.77;78.86;101529.81;10358981;28;20056;-73
2021/10/08 22:25:19;;;;;;;27.63;21.77;;;;;;;6.68;79.35;101526.22;10376162;28;20049;-73
2021/10/08 22:35:41;;;;;;;31.10;22.08;;;;;;;6.65;79.51;101526.22;10381666;28;20049;-74
2021/10/08 22:40:42;;;;;;;38.15;22.08;;;;;;;6.92;78.28;101530.78;10383030;28;20052;-73
2021/10/08 22:45:45;;;;;;;34.53;22.70;;;;;;;6.80;78.27;101524.59;10364856;28;20057;-73
2021/10/08 22:50:47;;;;;;;24.52;22.00;;;;;;;6.63;78.58;101526.19;10383033;28;20042;-73
2021/10/08 22:55:48;;;;;;;31.15;23.83;;;;;;;6.40;80.12;101526.00;10382114;28;20518;-73
2021/10/08 23:00:54;;;;;;;36.92;23.63;;;;;;;6.46;80.09;101517.34;10365060;28;20064;-73
2021/10/08 23:06:10;;;;;;;33.92;23.40;;;;;;;6.43;79.48;101518.19;10381712;28;20128;-73
2021/10/08 23:16:25;;;;;;;28.23;24.13;;;;;;;5.94;81.39;101524.69;10381126;28;20403;-73
2021/10/08 23:21:27;;;;;;;29.45;22.60;;;;;;;5.82;82.67;101522.75;10380985;28;20120;-74